sensor_id;sensor_type;location;lat;lon;timestamp;temperature;humidity
82868;DHT22;72629;51.206;4.424;2023-09-19T00:02:17;17.20;68.90
82868;DHT22;72629;51.206;4.424;2023-09-19T00:04:43;17.20;68.40
82868;DHT22;72629;51.206;4.424;2023-09-19T00:07:09;17.30;67.10
82868;DHT22;72629;51.206;4.424;2023-09-19T00:09:34;17.40;66.30
82868;DHT22;72629;51.206;4.424;2023-09-19T00:12:06;17.20;66.60
82868;DHT22;72629;51.206;4.424;2023-09-19T00:14:32;17.20;66.50
82868;DHT22;72629;51.206;4.424;2023-09-19T00:17:04;17.20;66.70
82868;DHT22;72629;51.206;4.424;2023-09-19T00:19:34;17.20;66.90
82868;DHT22;72629;51.206;4.424;2023-09-19T00:22:00;17.10;66.50
82868;DHT22;72629;51.206;4.424;2023-09-19T00:24:26;17.20;65.50
82868;DHT22;72629;51.206;4.424;2023-09-19T00:26:53;17.30;64.70
82868;DHT22;72629;51.206;4.424;2023-09-19T00:29:21;17.40;64.20
82868;DHT22;72629;51.206;4.424;2023-09-19T00:31:48;17.20;65.30
82868;DHT22;72629;51.206;4.424;2023-09-19T00:34:15;17.30;64.20
82868;DHT22;72629;51.206;4.424;2023-09-19T00:36:42;17.30;63.90
82868;DHT22;72629;51.206;4.424;2023-09-19T00:39:08;17.20;63.50
82868;DHT22;72629;51.206;4.424;2023-09-19T00:41:35;17.30;62.70
82868;DHT22;72629;51.206;4.424;2023-09-19T00:44:02;17.30;62.90
82868;DHT22;72629;51.206;4.424;2023-09-19T00:46:31;17.30;62.50
82868;DHT22;72629;51.206;4.424;2023-09-19T00:48:58;17.20;62.30
82868;DHT22;72629;51.206;4.424;2023-09-19T00:51:25;17.20;62.30
82868;DHT22;72629;51.206;4.424;2023-09-19T00:53:52;17.30;62.70
82868;DHT22;72629;51.206;4.424;2023-09-19T00:56:19;17.20;62.50
82868;DHT22;72629;51.206;4.424;2023-09-19T00:58:45;17.20;62.00
82868;DHT22;72629;51.206;4.424;2023-09-19T01:01:13;17.10;62.40
82868;DHT22;72629;51.206;4.424;2023-09-19T01:03:41;17.20;61.10
82868;DHT22;72629;51.206;4.424;2023-09-19T01:06:07;17.30;60.10
82868;DHT22;72629;51.206;4.424;2023-09-19T01:08:34;17.30;59.70
82868;DHT22;72629;51.206;4.424;2023-09-19T01:11:35;17.20;60.40
82868;DHT22;72629;51.206;4.424;2023-09-19T01:16:56;17.10;60.80
82868;DHT22;72629;51.206;4.424;2023-09-19T01:22:02;17.00;61.00
82868;DHT22;72629;51.206;4.424;2023-09-19T01:30:20;17.10;60.60
82868;DHT22;72629;51.206;4.424;2023-09-19T01:32:51;17.10;60.80
82868;DHT22;72629;51.206;4.424;2023-09-19T01:35:18;17.00;61.30
82868;DHT22;72629;51.206;4.424;2023-09-19T01:37:44;17.00;61.40
82868;DHT22;72629;51.206;4.424;2023-09-19T01:40:12;16.90;61.70
82868;DHT22;72629;51.206;4.424;2023-09-19T01:42:59;17.10;61.20
82868;DHT22;72629;51.206;4.424;2023-09-19T01:45:58;17.10;61.00
82868;DHT22;72629;51.206;4.424;2023-09-19T01:48:48;16.90;62.90
82868;DHT22;72629;51.206;4.424;2023-09-19T01:51:24;17.00;61.40
82868;DHT22;72629;51.206;4.424;2023-09-19T01:54:01;16.90;62.00
82868;DHT22;72629;51.206;4.424;2023-09-19T01:56:34;17.00;61.90
82868;DHT22;72629;51.206;4.424;2023-09-19T01:59:07;16.90;61.70
82868;DHT22;72629;51.206;4.424;2023-09-19T02:01:36;17.00;61.40
82868;DHT22;72629;51.206;4.424;2023-09-19T02:04:03;17.00;61.70
82868;DHT22;72629;51.206;4.424;2023-09-19T02:06:29;16.80;63.60
82868;DHT22;72629;51.206;4.424;2023-09-19T02:08:55;16.70;62.60
82868;DHT22;72629;51.206;4.424;2023-09-19T02:11:21;16.90;62.30
82868;DHT22;72629;51.206;4.424;2023-09-19T02:13:47;16.90;62.50
82868;DHT22;72629;51.206;4.424;2023-09-19T02:16:12;16.90;62.20
82868;DHT22;72629;51.206;4.424;2023-09-19T02:18:39;16.80;62.90
82868;DHT22;72629;51.206;4.424;2023-09-19T02:21:04;16.90;62.80
82868;DHT22;72629;51.206;4.424;2023-09-19T02:23:33;16.80;63.60
82868;DHT22;72629;51.206;4.424;2023-09-19T02:25:59;16.90;63.00
82868;DHT22;72629;51.206;4.424;2023-09-19T02:28:28;17.00;63.20
82868;DHT22;72629;51.206;4.424;2023-09-19T02:30:58;17.00;63.60
82868;DHT22;72629;51.206;4.424;2023-09-19T02:33:24;17.00;63.30
82868;DHT22;72629;51.206;4.424;2023-09-19T02:35:49;16.90;64.10
82868;DHT22;72629;51.206;4.424;2023-09-19T02:38:15;16.80;64.70
82868;DHT22;72629;51.206;4.424;2023-09-19T02:40:46;16.70;65.40
82868;DHT22;72629;51.206;4.424;2023-09-19T02:43:12;16.80;65.20
82868;DHT22;72629;51.206;4.424;2023-09-19T02:45:37;16.60;66.60
82868;DHT22;72629;51.206;4.424;2023-09-19T02:48:03;16.50;67.20
82868;DHT22;72629;51.206;4.424;2023-09-19T02:50:29;16.60;66.70
82868;DHT22;72629;51.206;4.424;2023-09-19T02:52:55;16.70;66.20
82868;DHT22;72629;51.206;4.424;2023-09-19T02:55:21;16.80;66.50
82868;DHT22;72629;51.206;4.424;2023-09-19T02:57:52;16.60;66.60
82868;DHT22;72629;51.206;4.424;2023-09-19T03:00:21;16.70;66.70
82868;DHT22;72629;51.206;4.424;2023-09-19T03:02:53;16.80;66.20
82868;DHT22;72629;51.206;4.424;2023-09-19T03:05:19;16.80;66.60
82868;DHT22;72629;51.206;4.424;2023-09-19T03:07:47;16.80;66.40
82868;DHT22;72629;51.206;4.424;2023-09-19T03:10:16;16.80;66.60
82868;DHT22;72629;51.206;4.424;2023-09-19T03:12:43;16.70;66.80
82868;DHT22;72629;51.206;4.424;2023-09-19T03:15:09;16.70;67.00
82868;DHT22;72629;51.206;4.424;2023-09-19T03:17:35;16.70;67.10
82868;DHT22;72629;51.206;4.424;2023-09-19T03:20:01;16.80;66.70
82868;DHT22;72629;51.206;4.424;2023-09-19T03:22:27;16.90;66.70
82868;DHT22;72629;51.206;4.424;2023-09-19T03:24:53;16.70;67.00
82868;DHT22;72629;51.206;4.424;2023-09-19T03:27:19;16.70;67.50
82868;DHT22;72629;51.206;4.424;2023-09-19T03:29:46;16.80;67.20
82868;DHT22;72629;51.206;4.424;2023-09-19T03:32:12;16.80;67.10
82868;DHT22;72629;51.206;4.424;2023-09-19T03:34:38;16.80;67.30
82868;DHT22;72629;51.206;4.424;2023-09-19T03:37:11;16.80;67.70
82868;DHT22;72629;51.206;4.424;2023-09-19T03:39:37;16.80;68.40
82868;DHT22;72629;51.206;4.424;2023-09-19T03:42:02;16.70;68.60
82868;DHT22;72629;51.206;4.424;2023-09-19T03:44:30;16.80;69.70
82868;DHT22;72629;51.206;4.424;2023-09-19T03:46:56;16.70;70.10
82868;DHT22;72629;51.206;4.424;2023-09-19T03:49:22;16.60;71.00
82868;DHT22;72629;51.206;4.424;2023-09-19T03:51:48;16.70;71.00
82868;DHT22;72629;51.206;4.424;2023-09-19T03:54:14;16.60;72.00
82868;DHT22;72629;51.206;4.424;2023-09-19T03:56:40;16.60;72.10
82868;DHT22;72629;51.206;4.424;2023-09-19T03:59:06;16.60;74.00
82868;DHT22;72629;51.206;4.424;2023-09-19T04:01:34;16.50;72.80
82868;DHT22;72629;51.206;4.424;2023-09-19T04:03:59;16.50;72.40
82868;DHT22;72629;51.206;4.424;2023-09-19T04:06:36;16.60;72.10
82868;DHT22;72629;51.206;4.424;2023-09-19T04:09:03;16.60;72.00
82868;DHT22;72629;51.206;4.424;2023-09-19T04:11:29;16.40;73.30
82868;DHT22;72629;51.206;4.424;2023-09-19T04:13:56;16.30;73.50
82868;DHT22;72629;51.206;4.424;2023-09-19T04:16:22;16.40;73.00
82868;DHT22;72629;51.206;4.424;2023-09-19T04:18:47;16.60;72.30
82868;DHT22;72629;51.206;4.424;2023-09-19T04:21:13;16.70;72.20
82868;DHT22;72629;51.206;4.424;2023-09-19T04:23:39;16.80;72.00
82868;DHT22;72629;51.206;4.424;2023-09-19T04:26:04;16.70;72.00
82868;DHT22;72629;51.206;4.424;2023-09-19T04:28:31;16.60;72.10
82868;DHT22;72629;51.206;4.424;2023-09-19T04:30:57;16.50;72.40
82868;DHT22;72629;51.206;4.424;2023-09-19T04:33:25;16.40;73.20
82868;DHT22;72629;51.206;4.424;2023-09-19T04:35:50;16.50;72.90
82868;DHT22;72629;51.206;4.424;2023-09-19T04:38:20;16.40;73.10
82868;DHT22;72629;51.206;4.424;2023-09-19T04:40:46;16.30;73.60
82868;DHT22;72629;51.206;4.424;2023-09-19T04:43:12;16.30;74.00
82868;DHT22;72629;51.206;4.424;2023-09-19T04:45:39;16.30;74.00
82868;DHT22;72629;51.206;4.424;2023-09-19T04:48:05;16.40;73.30
82868;DHT22;72629;51.206;4.424;2023-09-19T04:50:34;16.40;73.60
82868;DHT22;72629;51.206;4.424;2023-09-19T04:53:00;16.40;73.40
82868;DHT22;72629;51.206;4.424;2023-09-19T04:55:26;16.50;73.50
82868;DHT22;72629;51.206;4.424;2023-09-19T04:57:53;16.40;74.10
82868;DHT22;72629;51.206;4.424;2023-09-19T05:00:22;16.40;73.60
82868;DHT22;72629;51.206;4.424;2023-09-19T05:02:56;16.60;72.80
82868;DHT22;72629;51.206;4.424;2023-09-19T05:05:22;16.50;72.80
82868;DHT22;72629;51.206;4.424;2023-09-19T05:07:49;16.40;73.80
82868;DHT22;72629;51.206;4.424;2023-09-19T05:10:16;16.40;73.60
82868;DHT22;72629;51.206;4.424;2023-09-19T05:12:44;16.40;73.60
82868;DHT22;72629;51.206;4.424;2023-09-19T05:15:12;16.30;74.00
82868;DHT22;72629;51.206;4.424;2023-09-19T05:17:38;16.50;73.70
82868;DHT22;72629;51.206;4.424;2023-09-19T05:20:05;16.40;73.70
82868;DHT22;72629;51.206;4.424;2023-09-19T05:22:41;16.30;73.70
82868;DHT22;72629;51.206;4.424;2023-09-19T05:25:07;16.30;74.40
82868;DHT22;72629;51.206;4.424;2023-09-19T05:27:33;16.40;73.70
82868;DHT22;72629;51.206;4.424;2023-09-19T05:29:59;16.30;75.20
82868;DHT22;72629;51.206;4.424;2023-09-19T05:32:25;16.40;73.50
82868;DHT22;72629;51.206;4.424;2023-09-19T05:34:51;16.40;73.50
82868;DHT22;72629;51.206;4.424;2023-09-19T05:37:22;16.50;73.20
82868;DHT22;72629;51.206;4.424;2023-09-19T05:39:49;16.40;73.20
82868;DHT22;72629;51.206;4.424;2023-09-19T05:42:14;16.40;73.70
82868;DHT22;72629;51.206;4.424;2023-09-19T05:44:40;16.30;73.90
82868;DHT22;72629;51.206;4.424;2023-09-19T05:47:06;16.40;73.40
82868;DHT22;72629;51.206;4.424;2023-09-19T05:49:35;16.40;73.50
82868;DHT22;72629;51.206;4.424;2023-09-19T05:52:05;16.30;73.80
82868;DHT22;72629;51.206;4.424;2023-09-19T05:54:30;16.30;74.00
82868;DHT22;72629;51.206;4.424;2023-09-19T05:56:56;16.30;74.20
82868;DHT22;72629;51.206;4.424;2023-09-19T05:59:23;16.30;74.40
82868;DHT22;72629;51.206;4.424;2023-09-19T06:01:48;16.30;74.40
82868;DHT22;72629;51.206;4.424;2023-09-19T06:04:14;16.40;74.00
82868;DHT22;72629;51.206;4.424;2023-09-19T06:06:40;16.50;73.50
82868;DHT22;72629;51.206;4.424;2023-09-19T06:09:06;16.40;75.10
82868;DHT22;72629;51.206;4.424;2023-09-19T06:11:34;16.40;74.10
82868;DHT22;72629;51.206;4.424;2023-09-19T06:14:01;16.30;74.50
82868;DHT22;72629;51.206;4.424;2023-09-19T06:16:30;16.30;74.50
82868;DHT22;72629;51.206;4.424;2023-09-19T06:18:59;16.40;74.80
82868;DHT22;72629;51.206;4.424;2023-09-19T06:21:28;16.50;75.10
82868;DHT22;72629;51.206;4.424;2023-09-19T06:23:53;16.60;73.60
82868;DHT22;72629;51.206;4.424;2023-09-19T06:26:19;16.60;73.70
82868;DHT22;72629;51.206;4.424;2023-09-19T06:28:45;16.50;73.90
82868;DHT22;72629;51.206;4.424;2023-09-19T06:31:11;16.50;74.30
82868;DHT22;72629;51.206;4.424;2023-09-19T06:33:37;16.50;74.20
82868;DHT22;72629;51.206;4.424;2023-09-19T06:36:06;16.50;73.80
82868;DHT22;72629;51.206;4.424;2023-09-19T06:38:33;16.50;74.30
82868;DHT22;72629;51.206;4.424;2023-09-19T06:41:02;16.50;74.40
82868;DHT22;72629;51.206;4.424;2023-09-19T06:43:31;16.50;73.80
82868;DHT22;72629;51.206;4.424;2023-09-19T06:45:56;16.50;74.30
82868;DHT22;72629;51.206;4.424;2023-09-19T06:48:23;16.60;74.10
82868;DHT22;72629;51.206;4.424;2023-09-19T06:50:50;16.70;74.00
82868;DHT22;72629;51.206;4.424;2023-09-19T06:53:16;16.80;73.00
82868;DHT22;72629;51.206;4.424;2023-09-19T06:55:43;16.80;72.90
82868;DHT22;72629;51.206;4.424;2023-09-19T06:58:09;16.90;73.20
82868;DHT22;72629;51.206;4.424;2023-09-19T07:00:36;16.90;72.80
82868;DHT22;72629;51.206;4.424;2023-09-19T07:03:05;17.00;72.30
82868;DHT22;72629;51.206;4.424;2023-09-19T07:05:37;16.90;72.70
82868;DHT22;72629;51.206;4.424;2023-09-19T07:08:08;16.90;72.70
82868;DHT22;72629;51.206;4.424;2023-09-19T07:10:36;17.00;72.60
82868;DHT22;72629;51.206;4.424;2023-09-19T07:13:03;17.00;72.80
82868;DHT22;72629;51.206;4.424;2023-09-19T07:15:32;17.00;72.60
82868;DHT22;72629;51.206;4.424;2023-09-19T07:18:01;17.00;72.90
82868;DHT22;72629;51.206;4.424;2023-09-19T07:20:26;17.10;72.70
82868;DHT22;72629;51.206;4.424;2023-09-19T07:22:55;17.00;73.10
82868;DHT22;72629;51.206;4.424;2023-09-19T07:25:21;17.00;73.30
82868;DHT22;72629;51.206;4.424;2023-09-19T07:27:46;17.00;73.20
82868;DHT22;72629;51.206;4.424;2023-09-19T07:30:13;17.20;72.80
82868;DHT22;72629;51.206;4.424;2023-09-19T07:32:39;17.20;72.00
82868;DHT22;72629;51.206;4.424;2023-09-19T07:35:06;17.10;72.50
82868;DHT22;72629;51.206;4.424;2023-09-19T07:37:32;17.10;72.60
82868;DHT22;72629;51.206;4.424;2023-09-19T07:39:59;17.20;72.10
82868;DHT22;72629;51.206;4.424;2023-09-19T07:42:26;17.20;72.40
82868;DHT22;72629;51.206;4.424;2023-09-19T07:44:52;17.20;72.90
82868;DHT22;72629;51.206;4.424;2023-09-19T07:47:20;17.30;72.00
82868;DHT22;72629;51.206;4.424;2023-09-19T07:49:47;17.30;71.90
82868;DHT22;72629;51.206;4.424;2023-09-19T07:52:13;17.00;72.90
82868;DHT22;72629;51.206;4.424;2023-09-19T07:54:39;17.10;72.50
82868;DHT22;72629;51.206;4.424;2023-09-19T07:57:06;17.20;72.40
82868;DHT22;72629;51.206;4.424;2023-09-19T07:59:32;17.20;72.60
82868;DHT22;72629;51.206;4.424;2023-09-19T08:01:58;17.30;73.40
82868;DHT22;72629;51.206;4.424;2023-09-19T08:04:24;17.40;71.70
82868;DHT22;72629;51.206;4.424;2023-09-19T08:06:51;17.50;71.80
82868;DHT22;72629;51.206;4.424;2023-09-19T08:09:17;17.50;71.20
82868;DHT22;72629;51.206;4.424;2023-09-19T08:11:47;17.60;71.30
82868;DHT22;72629;51.206;4.424;2023-09-19T08:14:13;17.80;70.30
82868;DHT22;72629;51.206;4.424;2023-09-19T08:16:40;17.80;70.20
82868;DHT22;72629;51.206;4.424;2023-09-19T08:19:05;17.70;70.90
82868;DHT22;72629;51.206;4.424;2023-09-19T08:21:31;17.80;70.90
82868;DHT22;72629;51.206;4.424;2023-09-19T08:23:57;17.90;71.10
82868;DHT22;72629;51.206;4.424;2023-09-19T08:26:23;18.00;69.40
82868;DHT22;72629;51.206;4.424;2023-09-19T08:28:50;18.00;69.40
82868;DHT22;72629;51.206;4.424;2023-09-19T08:31:17;18.10;69.00
82868;DHT22;72629;51.206;4.424;2023-09-19T08:33:43;18.10;69.20
82868;DHT22;72629;51.206;4.424;2023-09-19T08:36:12;18.20;68.40
82868;DHT22;72629;51.206;4.424;2023-09-19T08:38:39;18.40;68.00
82868;DHT22;72629;51.206;4.424;2023-09-19T08:41:06;18.40;67.10
82868;DHT22;72629;51.206;4.424;2023-09-19T08:43:33;18.40;67.90
82868;DHT22;72629;51.206;4.424;2023-09-19T08:48:32;18.50;68.00
82868;DHT22;72629;51.206;4.424;2023-09-19T08:51:15;18.50;67.70
82868;DHT22;72629;51.206;4.424;2023-09-19T08:53:51;18.50;67.80
82868;DHT22;72629;51.206;4.424;2023-09-19T08:56:18;18.60;67.50
82868;DHT22;72629;51.206;4.424;2023-09-19T08:58:50;18.70;66.80
82868;DHT22;72629;51.206;4.424;2023-09-19T09:01:17;18.60;67.10
82868;DHT22;72629;51.206;4.424;2023-09-19T09:03:53;18.70;66.80
82868;DHT22;72629;51.206;4.424;2023-09-19T09:06:20;18.80;66.80
82868;DHT22;72629;51.206;4.424;2023-09-19T09:08:46;18.60;66.50
82868;DHT22;72629;51.206;4.424;2023-09-19T09:11:13;18.60;67.30
82868;DHT22;72629;51.206;4.424;2023-09-19T09:13:40;18.60;67.80
82868;DHT22;72629;51.206;4.424;2023-09-19T09:16:07;18.80;66.10
82868;DHT22;72629;51.206;4.424;2023-09-19T09:18:33;18.90;65.60
82868;DHT22;72629;51.206;4.424;2023-09-19T09:20:59;18.90;66.40
82868;DHT22;72629;51.206;4.424;2023-09-19T09:23:27;19.00;65.30
82868;DHT22;72629;51.206;4.424;2023-09-19T09:25:55;18.90;66.20
82868;DHT22;72629;51.206;4.424;2023-09-19T09:28:26;18.90;65.80
82868;DHT22;72629;51.206;4.424;2023-09-19T09:30:53;19.00;65.40
82868;DHT22;72629;51.206;4.424;2023-09-19T09:33:20;19.10;64.30
82868;DHT22;72629;51.206;4.424;2023-09-19T09:35:57;19.30;64.40
82868;DHT22;72629;51.206;4.424;2023-09-19T09:38:28;19.30;64.00
82868;DHT22;72629;51.206;4.424;2023-09-19T09:40:57;19.30;62.50
82868;DHT22;72629;51.206;4.424;2023-09-19T09:43:35;19.30;62.70
82868;DHT22;72629;51.206;4.424;2023-09-19T09:46:14;19.30;62.00
82868;DHT22;72629;51.206;4.424;2023-09-19T09:49:03;19.30;61.70
82868;DHT22;72629;51.206;4.424;2023-09-19T09:51:58;19.30;62.20
82868;DHT22;72629;51.206;4.424;2023-09-19T09:54:28;19.20;61.90
82868;DHT22;72629;51.206;4.424;2023-09-19T09:57:03;19.20;61.20
82868;DHT22;72629;51.206;4.424;2023-09-19T09:59:55;19.30;61.10
82868;DHT22;72629;51.206;4.424;2023-09-19T10:02:30;19.40;60.80
82868;DHT22;72629;51.206;4.424;2023-09-19T10:05:18;19.30;61.30
82868;DHT22;72629;51.206;4.424;2023-09-19T10:07:54;19.40;62.10
82868;DHT22;72629;51.206;4.424;2023-09-19T10:10:39;19.50;60.40
82868;DHT22;72629;51.206;4.424;2023-09-19T10:13:09;19.70;59.80
82868;DHT22;72629;51.206;4.424;2023-09-19T10:15:39;19.70;59.80
82868;DHT22;72629;51.206;4.424;2023-09-19T10:18:10;19.70;59.80
82868;DHT22;72629;51.206;4.424;2023-09-19T10:20:43;19.80;61.40
82868;DHT22;72629;51.206;4.424;2023-09-19T10:23:12;19.80;58.60
82868;DHT22;72629;51.206;4.424;2023-09-19T10:25:46;19.80;59.20
82868;DHT22;72629;51.206;4.424;2023-09-19T10:28:14;19.90;59.20
82868;DHT22;72629;51.206;4.424;2023-09-19T10:30:44;19.90;59.80
82868;DHT22;72629;51.206;4.424;2023-09-19T10:33:14;19.90;59.30
82868;DHT22;72629;51.206;4.424;2023-09-19T10:35:45;19.90;59.40
82868;DHT22;72629;51.206;4.424;2023-09-19T10:38:12;19.90;59.40
82868;DHT22;72629;51.206;4.424;2023-09-19T10:40:39;20.00;59.60
82868;DHT22;72629;51.206;4.424;2023-09-19T10:43:21;20.00;59.20
82868;DHT22;72629;51.206;4.424;2023-09-19T10:45:50;20.00;59.70
82868;DHT22;72629;51.206;4.424;2023-09-19T10:48:19;20.00;59.60
82868;DHT22;72629;51.206;4.424;2023-09-19T10:56:08;20.00;59.70
82868;DHT22;72629;51.206;4.424;2023-09-19T10:58:43;20.10;59.70
82868;DHT22;72629;51.206;4.424;2023-09-19T11:01:11;20.10;59.40
82868;DHT22;72629;51.206;4.424;2023-09-19T11:03:44;20.10;59.30
82868;DHT22;72629;51.206;4.424;2023-09-19T11:06:17;20.30;59.60
82868;DHT22;72629;51.206;4.424;2023-09-19T11:08:58;20.30;59.90
82868;DHT22;72629;51.206;4.424;2023-09-19T11:11:51;20.40;60.90
82868;DHT22;72629;51.206;4.424;2023-09-19T11:30:41;20.70;58.00
82868;DHT22;72629;51.206;4.424;2023-09-19T11:33:24;20.70;58.10
82868;DHT22;72629;51.206;4.424;2023-09-19T11:43:51;20.80;58.20
82868;DHT22;72629;51.206;4.424;2023-09-19T11:46:17;20.80;58.20
82868;DHT22;72629;51.206;4.424;2023-09-19T11:48:48;20.80;57.70
82868;DHT22;72629;51.206;4.424;2023-09-19T11:51:19;20.80;57.60
82868;DHT22;72629;51.206;4.424;2023-09-19T11:53:49;20.70;57.00
82868;DHT22;72629;51.206;4.424;2023-09-19T11:56:23;20.70;57.70
82868;DHT22;72629;51.206;4.424;2023-09-19T11:58:51;20.70;58.10
82868;DHT22;72629;51.206;4.424;2023-09-19T12:01:29;20.70;58.40
82868;DHT22;72629;51.206;4.424;2023-09-19T12:03:57;20.70;58.10
82868;DHT22;72629;51.206;4.424;2023-09-19T12:06:27;20.70;58.20
82868;DHT22;72629;51.206;4.424;2023-09-19T12:08:55;20.90;58.10
82868;DHT22;72629;51.206;4.424;2023-09-19T12:11:23;21.00;58.00
82868;DHT22;72629;51.206;4.424;2023-09-19T12:13:50;21.10;57.30
82868;DHT22;72629;51.206;4.424;2023-09-19T12:16:18;21.20;57.10
82868;DHT22;72629;51.206;4.424;2023-09-19T12:18:48;21.30;56.90
82868;DHT22;72629;51.206;4.424;2023-09-19T12:24:11;21.40;57.00
82868;DHT22;72629;51.206;4.424;2023-09-19T12:26:43;21.40;56.40
82868;DHT22;72629;51.206;4.424;2023-09-19T12:29:15;21.50;56.40
82868;DHT22;72629;51.206;4.424;2023-09-19T12:34:21;21.60;55.60
82868;DHT22;72629;51.206;4.424;2023-09-19T12:36:48;21.60;55.40
82868;DHT22;72629;51.206;4.424;2023-09-19T12:39:24;21.50;55.70
82868;DHT22;72629;51.206;4.424;2023-09-19T12:41:55;21.50;56.20
82868;DHT22;72629;51.206;4.424;2023-09-19T12:44:22;21.50;56.20
82868;DHT22;72629;51.206;4.424;2023-09-19T12:46:50;21.50;55.90
82868;DHT22;72629;51.206;4.424;2023-09-19T12:51:48;21.60;56.00
82868;DHT22;72629;51.206;4.424;2023-09-19T12:54:14;21.70;56.10
82868;DHT22;72629;51.206;4.424;2023-09-19T12:56:42;21.80;55.50
82868;DHT22;72629;51.206;4.424;2023-09-19T12:59:14;21.80;55.60
82868;DHT22;72629;51.206;4.424;2023-09-19T13:01:41;21.70;55.70
82868;DHT22;72629;51.206;4.424;2023-09-19T13:04:21;21.70;56.00
82868;DHT22;72629;51.206;4.424;2023-09-19T13:06:55;21.70;56.10
82868;DHT22;72629;51.206;4.424;2023-09-19T13:09:27;21.70;56.10
82868;DHT22;72629;51.206;4.424;2023-09-19T13:11:59;21.70;55.90
82868;DHT22;72629;51.206;4.424;2023-09-19T13:14:28;21.70;56.10
82868;DHT22;72629;51.206;4.424;2023-09-19T13:16:57;21.80;55.60
82868;DHT22;72629;51.206;4.424;2023-09-19T13:19:44;21.90;55.90
82868;DHT22;72629;51.206;4.424;2023-09-19T13:22:36;21.80;55.60
82868;DHT22;72629;51.206;4.424;2023-09-19T13:25:07;21.90;55.70
82868;DHT22;72629;51.206;4.424;2023-09-19T13:27:33;21.80;55.70
82868;DHT22;72629;51.206;4.424;2023-09-19T13:29:59;21.80;56.20
82868;DHT22;72629;51.206;4.424;2023-09-19T13:32:25;21.80;56.30
82868;DHT22;72629;51.206;4.424;2023-09-19T13:34:51;21.80;56.20
82868;DHT22;72629;51.206;4.424;2023-09-19T13:37:17;21.80;56.10
82868;DHT22;72629;51.206;4.424;2023-09-19T13:39:44;21.90;56.20
82868;DHT22;72629;51.206;4.424;2023-09-19T13:42:13;21.90;55.70
82868;DHT22;72629;51.206;4.424;2023-09-19T13:44:39;21.90;56.00
82868;DHT22;72629;51.206;4.424;2023-09-19T13:47:06;21.90;55.90
82868;DHT22;72629;51.206;4.424;2023-09-19T13:49:35;21.90;56.10
82868;DHT22;72629;51.206;4.424;2023-09-19T13:52:01;22.10;56.00
82868;DHT22;72629;51.206;4.424;2023-09-19T13:54:30;22.20;55.90
82868;DHT22;72629;51.206;4.424;2023-09-19T13:56:56;22.40;55.40
82868;DHT22;72629;51.206;4.424;2023-09-19T13:59:22;22.80;55.00
82868;DHT22;72629;51.206;4.424;2023-09-19T14:01:49;22.80;54.10
82868;DHT22;72629;51.206;4.424;2023-09-19T14:04:16;22.70;54.10
82868;DHT22;72629;51.206;4.424;2023-09-19T14:06:42;22.60;54.60
82868;DHT22;72629;51.206;4.424;2023-09-19T14:09:10;22.50;55.00
82868;DHT22;72629;51.206;4.424;2023-09-19T14:11:36;22.50;54.60
82868;DHT22;72629;51.206;4.424;2023-09-19T14:14:02;22.60;54.60
82868;DHT22;72629;51.206;4.424;2023-09-19T14:16:30;22.50;54.50
82868;DHT22;72629;51.206;4.424;2023-09-19T14:18:56;22.60;54.50
82868;DHT22;72629;51.206;4.424;2023-09-19T14:21:23;22.90;53.40
82868;DHT22;72629;51.206;4.424;2023-09-19T14:23:49;22.90;53.50
82868;DHT22;72629;51.206;4.424;2023-09-19T14:26:15;22.80;53.80
82868;DHT22;72629;51.206;4.424;2023-09-19T14:28:44;22.70;54.20
82868;DHT22;72629;51.206;4.424;2023-09-19T14:31:11;22.70;54.30
82868;DHT22;72629;51.206;4.424;2023-09-19T14:33:37;22.40;54.90
82868;DHT22;72629;51.206;4.424;2023-09-19T14:36:08;22.40;55.00
82868;DHT22;72629;51.206;4.424;2023-09-19T14:38:35;22.30;55.40
82868;DHT22;72629;51.206;4.424;2023-09-19T14:41:05;22.30;55.40
82868;DHT22;72629;51.206;4.424;2023-09-19T14:43:31;22.30;55.60
82868;DHT22;72629;51.206;4.424;2023-09-19T14:46:04;22.30;55.50
82868;DHT22;72629;51.206;4.424;2023-09-19T14:48:30;22.30;55.20
82868;DHT22;72629;51.206;4.424;2023-09-19T14:51:02;22.30;55.40
82868;DHT22;72629;51.206;4.424;2023-09-19T14:53:28;22.20;55.70
82868;DHT22;72629;51.206;4.424;2023-09-19T14:55:53;22.10;56.00
82868;DHT22;72629;51.206;4.424;2023-09-19T14:58:20;22.20;55.80
82868;DHT22;72629;51.206;4.424;2023-09-19T15:00:47;22.10;56.00
82868;DHT22;72629;51.206;4.424;2023-09-19T15:03:12;22.20;56.10
82868;DHT22;72629;51.206;4.424;2023-09-19T15:05:40;22.10;56.30
82868;DHT22;72629;51.206;4.424;2023-09-19T15:08:05;22.10;56.50
82868;DHT22;72629;51.206;4.424;2023-09-19T15:10:31;22.00;56.30
82868;DHT22;72629;51.206;4.424;2023-09-19T15:12:57;22.00;55.90
82868;DHT22;72629;51.206;4.424;2023-09-19T15:15:23;21.90;56.30
82868;DHT22;72629;51.206;4.424;2023-09-19T15:17:49;21.90;56.40
82868;DHT22;72629;51.206;4.424;2023-09-19T15:20:14;21.80;56.80
82868;DHT22;72629;51.206;4.424;2023-09-19T15:22:40;21.70;56.50
82868;DHT22;72629;51.206;4.424;2023-09-19T15:25:07;21.70;56.70
82868;DHT22;72629;51.206;4.424;2023-09-19T15:27:32;21.70;56.80
82868;DHT22;72629;51.206;4.424;2023-09-19T15:30:01;21.60;57.20
82868;DHT22;72629;51.206;4.424;2023-09-19T15:32:28;21.50;57.40
82868;DHT22;72629;51.206;4.424;2023-09-19T15:34:54;21.60;57.70
82868;DHT22;72629;51.206;4.424;2023-09-19T15:37:20;21.60;57.70
82868;DHT22;72629;51.206;4.424;2023-09-19T15:39:46;21.50;57.70
82868;DHT22;72629;51.206;4.424;2023-09-19T15:42:12;21.60;58.00
82868;DHT22;72629;51.206;4.424;2023-09-19T15:44:38;21.70;57.50
82868;DHT22;72629;51.206;4.424;2023-09-19T15:47:04;21.70;57.70
82868;DHT22;72629;51.206;4.424;2023-09-19T15:49:30;21.70;57.40
82868;DHT22;72629;51.206;4.424;2023-09-19T15:51:56;21.60;57.70
82868;DHT22;72629;51.206;4.424;2023-09-19T15:54:21;21.60;57.90
82868;DHT22;72629;51.206;4.424;2023-09-19T15:56:47;21.60;58.30
82868;DHT22;72629;51.206;4.424;2023-09-19T15:59:14;21.50;58.20
82868;DHT22;72629;51.206;4.424;2023-09-19T16:01:44;21.50;58.80
82868;DHT22;72629;51.206;4.424;2023-09-19T16:04:11;21.50;58.60
82868;DHT22;72629;51.206;4.424;2023-09-19T16:06:37;21.50;58.60
82868;DHT22;72629;51.206;4.424;2023-09-19T16:09:04;21.50;58.50
82868;DHT22;72629;51.206;4.424;2023-09-19T16:11:32;21.50;58.50
82868;DHT22;72629;51.206;4.424;2023-09-19T16:13:58;21.50;58.70
82868;DHT22;72629;51.206;4.424;2023-09-19T16:16:26;21.50;58.70
82868;DHT22;72629;51.206;4.424;2023-09-19T16:18:57;21.40;58.80
82868;DHT22;72629;51.206;4.424;2023-09-19T16:21:25;21.30;59.30
82868;DHT22;72629;51.206;4.424;2023-09-19T16:23:56;21.40;59.10
82868;DHT22;72629;51.206;4.424;2023-09-19T16:26:22;21.40;59.20
82868;DHT22;72629;51.206;4.424;2023-09-19T16:28:53;21.40;58.90
82868;DHT22;72629;51.206;4.424;2023-09-19T16:31:20;21.30;59.10